Latest Weather Observations for Camden

IDN60801

Issued at 8:05 pm EDT Friday 28 November 2014 (issued every 30 minutes, with the page automatically refreshed every 10 minutes)

About weather observations | Map of weather stations | Latest weather observations for NSW | Other Formats
Station Details ID: 068192 Name: CAMDEN AIRPORT AWS Lat: -34.04 Lon: 150.69 Height: 73.9 m
Data from the previous 72 hours. | See also: Recent months at Camden
Date/Time
EDT
Temp
°C
App
Temp
°C
Dew
Point
Rel
Hum
%
Delta-T
°C
Wind Press
QNH
hPa
Press
MSL
hPa
Rain
since 9 am
mm
Dir
 
Spd
km/h
Gust
km/h
Spd
kts
Gust
kts
28/08:00pm 19.1 17.0 11.2 60 4.3 ENE 13 19 7 10 1020.2 1020.0 0.0
28/07:30pm 20.1 18.0 11.1 56 4.9 ENE 13 20 7 11 1020.1 1019.9 0.0
28/07:00pm 21.1 17.6 10.9 52 5.6 NE 20 28 11 15 1020.0 1019.8 0.0
28/06:30pm 22.2 19.2 10.7 48 6.3 E 17 26 9 14 1019.7 1019.5 0.0
28/06:00pm 23.0 19.7 10.8 46 6.8 ENE 19 26 10 14 1019.5 1019.3 0.0
28/05:30pm 23.0 19.1 10.8 46 6.8 ENE 22 30 12 16 1019.3 1019.1 0.0
28/05:00pm 23.8 20.2 10.5 43 7.4 E 20 33 11 18 1019.3 1019.1 0.0
28/04:30pm 24.8 21.2 9.9 39 8.2 ENE 19 32 10 17 1019.5 1019.3 0.0
28/04:00pm 24.9 20.9 9.2 37 8.5 NNE 20 26 11 14 1019.7 1019.5 0.0
28/03:30pm 25.4 22.5 9.7 37 8.7 E 15 22 8 12 1020.0 1019.8 0.0
28/03:00pm 24.5 22.9 8.9 37 8.4 N 7 11 4 6 1020.3 1020.1 0.0
28/02:30pm 25.3 21.8 8.7 35 9.0 NE 17 30 9 16 1020.6 1020.4 0.0
28/02:00pm 25.6 21.6 9.0 35 9.0 NNE 20 26 11 14 1021.0 1020.8 0.0
28/01:30pm 24.4 21.9 8.4 36 8.6 E 11 22 6 12 1021.6 1021.4 0.0
28/01:00pm 23.3 20.2 7.4 36 8.3 ENE 13 22 7 12 1022.2 1022.0 0.0
28/12:30pm 24.4 19.9 8.4 36 8.6 N 22 26 12 14 1022.4 1022.2 0.0
28/12:00pm 23.3 21.5 9.3 41 7.5 W 9 15 5 8 1023.0 1022.8 0.0
28/11:30am 21.2 19.7 9.1 46 6.5 NNW 7 11 4 6 1023.4 1023.2 0.0
28/11:00am 21.1 19.7 9.4 47 6.2 W 7 13 4 7 1023.5 1023.3 0.0
28/10:30am 20.4 18.8 8.7 47 6.2 SSW 7 13 4 7 1023.6 1023.4 0.0
28/10:00am 20.2 18.4 9.5 50 5.7 SE 9 15 5 8 1023.9 1023.7 0.0
28/09:30am 20.5 18.8 9.7 50 5.8 ENE 9 17 5 9 1024.1 1023.9 0.0
28/09:00am 20.3 18.8 10.7 54 5.2 ENE 9 15 5 8 1024.3 1024.1 0.2
28/08:30am 19.0 18.0 11.1 60 4.3 SE 7 13 4 7 1024.1 1023.9 0.2
28/08:00am 17.7 17.2 11.9 69 3.2 S 6 9 3 5 1024.0 1023.8 0.2
28/07:30am 16.5 16.9 12.5 77 2.2 S 2 7 1 4 1023.8 1023.6 0.2
28/07:00am 15.1 15.9 12.4 84 1.5 CALM 0 0 0 0 1023.5 1023.3 0.2
28/06:30am 13.3 14.1 12.7 96 0.3 CALM 0 0 0 0 1023.2 1023.0 0.2
28/06:00am 12.5 13.1 11.9 96 0.3 CALM 0 0 0 0 1023.1 1022.9 0.2
28/05:30am 12.6 11.8 11.8 95 0.4 S 7 9 4 5 1022.8 1022.6 0.2
28/05:00am 12.8 12.3 12.0 95 0.4 SW 6 7 3 4 1022.6 1022.4 0.2
28/04:30am 13.1 12.3 11.8 92 0.7 SSE 7 9 4 5 1022.5 1022.3 0.2
28/04:00am 13.6 13.1 12.5 93 0.6 S 7 9 4 5 1022.7 1022.5 0.2
28/03:30am 14.0 14.9 12.9 93 0.6 CALM 0 0 0 0 1022.7 1022.5 0.2
28/03:00am 13.7 14.4 12.1 90 0.9 CALM 0 0 0 0 1022.8 1022.6 0.2
28/02:30am 14.5 14.5 12.5 88 1.1 SSW 4 7 2 4 1022.8 1022.6 0.2
28/02:00am 14.9 14.2 13.1 89 1.0 SSW 9 11 5 6 1023.2 1023.0 0.2
28/01:30am 14.4 15.4 13.3 93 0.6 CALM 0 4 0 2 1023.3 1023.1 0.2
28/01:00am 14.1 14.7 12.0 87 1.1 CALM 0 0 0 0 1023.6 1023.4 0.2
28/12:30am 15.0 15.9 12.9 87 1.2 CALM 0 0 0 0 1023.9 1023.7 0.2
28/12:00am 15.4 15.4 12.5 83 1.6 SW 4 6 2 3 1024.2 1024.0 0.2
 
Date/Time
EDT
Temp
°C
App
Temp
°C
Dew
Point
Rel
Hum
%
Delta-T
°C
Wind Press
QNH
hPa
Press
MSL
hPa
Rain
since 9 am
mm
Dir
 
Spd
km/h
Gust
km/h
Spd
kts
Gust
kts
27/11:30pm 15.8 16.6 12.5 81 1.8 CALM 0 0 0 0 1024.4 1024.2 0.2
27/11:00pm 16.3 16.4 12.8 80 1.9 SW 4 6 2 3 1024.5 1024.3 0.2
27/10:30pm 16.4 16.1 12.8 79 2.0 SW 6 7 3 4 1024.7 1024.5 0.2
27/10:00pm 16.7 16.7 12.5 76 2.3 SSW 4 7 2 4 1024.7 1024.5 0.2
27/09:30pm 16.9 17.0 12.6 76 2.4 S 4 7 2 4 1024.6 1024.4 0.2
27/09:00pm 16.9 16.5 12.4 75 2.5 S 6 7 3 4 1024.2 1024.0 0.2
27/08:30pm 17.3 17.0 12.6 74 2.6 S 6 7 3 4 1023.9 1023.7 0.2
27/08:00pm 17.4 16.8 12.3 72 2.8 SSE 7 13 4 7 1023.6 1023.4 0.2
27/07:30pm 17.7 16.7 12.4 71 2.9 ESE 9 13 5 7 1023.4 1023.2 0.2
27/07:00pm 18.1 16.8 12.5 70 3.1 ESE 11 17 6 9 1023.1 1022.9 0.2
27/06:30pm 18.5 17.3 12.7 69 3.3 E 11 17 6 9 1022.8 1022.6 0.2
27/06:00pm 18.7 17.1 12.7 68 3.4 SE 13 20 7 11 1022.4 1022.2 0.2
27/05:30pm 19.0 17.3 12.5 66 3.6 ESE 13 19 7 10 1022.3 1022.1 0.2
27/05:00pm 19.1 16.3 12.6 66 3.6 SE 19 26 10 14 1022.3 1022.1 0.2
27/04:30pm 19.2 16.9 12.9 67 3.6 SE 17 22 9 12 1022.4 1022.2 0.2
27/04:00pm 20.0 19.4 13.5 66 3.7 E 9 15 5 8 1022.4 1022.2 0.2
27/03:30pm 19.1 18.8 13.3 69 3.3 SE 7 13 4 7 1022.6 1022.4 0.2
27/03:00pm 18.4 17.3 14.3 77 2.4 ENE 13 15 7 8 1022.6 1022.4 0.2
27/02:30pm 18.3 18.1 14.8 80 2.0 E 9 13 5 7 1022.7 1022.5 0.2
27/02:14pm 17.8 18.0 14.7 82 1.8 ESE 7 13 4 7 1022.7 1022.5 0.2
27/02:00pm 17.7 17.3 14.2 80 2.0 E 9 17 5 9 1022.6 1022.4 0.2
27/01:48pm 17.9 17.4 13.8 77 2.3 ESE 9 17 5 9 1022.7 1022.5 0.2
27/01:30pm 18.7 18.9 14.2 75 2.6 E 6 17 3 9 1022.6 1022.4 0.2
27/01:00pm 17.9 18.2 15.0 83 1.7 E 7 11 4 6 1022.8 1022.6 0.2
27/12:30pm 17.2 16.1 14.3 83 1.7 ESE 13 19 7 10 1023.0 1022.8 0.0
27/12:00pm 18.0 18.0 14.3 79 2.1 E 7 13 4 7 1023.0 1022.8 0.0
27/11:30am 18.7 17.8 13.8 73 2.8 SE 11 17 6 9 1022.8 1022.6 0.0
27/11:00am 19.5 18.7 14.1 71 3.1 S 11 15 6 8 1022.7 1022.5 0.0
27/10:30am 18.2 17.1 14.3 78 2.3 S 13 17 7 9 1022.7 1022.5 0.0
27/10:00am 17.4 15.2 13.3 77 2.3 S 17 24 9 13 1022.8 1022.6 0.0
27/09:30am 19.0 17.9 13.2 69 3.3 S 11 17 6 9 1022.5 1022.3 0.0
27/09:00am 18.5 17.0 13.1 71 3.0 S 13 20 7 11 1022.5 1022.3 0.0
27/08:30am 18.1 16.7 13.4 74 2.7 S 13 19 7 10 1022.5 1022.3 0.0
27/08:00am 18.0 16.6 13.5 75 2.5 S 13 20 7 11 1022.2 1022.0 0.0
27/07:30am 17.5 16.5 13.4 77 2.3 S 11 17 6 9 1021.8 1021.6 0.0
27/07:00am 17.1 15.3 13.2 78 2.2 S 15 22 8 12 1021.4 1021.2 0.0
27/06:30am 17.2 15.4 13.3 78 2.2 S 15 24 8 13 1021.2 1021.0 0.0
27/06:00am 17.3 16.0 13.6 79 2.1 S 13 20 7 11 1020.8 1020.6 0.0
27/05:30am 17.0 15.1 14.1 83 1.7 S 17 24 9 13 1020.4 1020.2 0.0
27/05:00am 18.0 15.5 13.5 75 2.5 S 19 30 10 16 1019.7 1019.5 0.0
27/04:30am 18.0 16.0 13.9 77 2.3 S 17 26 9 14 1019.1 1018.9 0.0
27/04:00am 18.6 16.2 14.5 77 2.4 S 20 28 11 15 1018.8 1018.6 0.0
27/03:30am 18.9 19.2 16.1 84 1.7 S 9 13 5 7 1018.7 1018.5 0.0
27/03:00am 18.5 20.3 15.6 83 1.7 CALM 0 0 0 0 1018.6 1018.4 0.0
27/02:30am 18.4 20.2 15.6 84 1.7 CALM 0 0 0 0 1018.7 1018.5 0.0
27/02:00am 18.5 20.4 15.7 84 1.7 CALM 0 0 0 0 1018.8 1018.6 0.0
27/01:30am 18.2 19.7 15.6 85 1.5 S 2 6 1 3 1019.1 1018.9 0.0
27/01:00am 18.3 19.0 15.7 85 1.5 SSE 6 7 3 4 1019.4 1019.2 0.0
27/12:30am 18.0 19.7 15.3 84 1.6 CALM 0 0 0 0 1019.5 1019.3 0.0
27/12:00am 18.5 19.1 15.4 82 1.8 S 6 6 3 3 1019.5 1019.3 0.0
 
Date/Time
EDT
Temp
°C
App
Temp
°C
Dew
Point
Rel
Hum
%
Delta-T
°C
Wind Press
QNH
hPa
Press
MSL
hPa
Rain
since 9 am
mm
Dir
 
Spd
km/h
Gust
km/h
Spd
kts
Gust
kts
26/11:30pm 19.1 19.7 15.4 79 2.2 SSE 6 9 3 5 1019.5 1019.3 0.0
26/11:00pm 19.9 20.4 15.5 76 2.6 SSE 7 9 4 5 1019.5 1019.3 0.0
26/10:30pm 20.2 20.6 15.4 74 2.8 ENE 7 13 4 7 1019.3 1019.1 0.0
26/10:00pm 20.4 20.5 15.4 73 3.0 E 9 15 5 8 1019.2 1019.0 0.0
26/09:30pm 20.6 21.0 15.4 72 3.1 E 7 13 4 7 1018.9 1018.7 0.0
26/09:00pm 20.7 20.8 15.5 72 3.1 E 9 15 5 8 1018.4 1018.2 0.0
26/08:30pm 20.9 19.4 15.2 70 3.4 E 17 24 9 13 1017.9 1017.7 0.0
26/08:00pm 21.1 19.5 15.0 68 3.6 E 17 26 9 14 1017.6 1017.4 0.0
26/07:30pm 22.0 20.4 15.1 65 4.1 E 17 26 9 14 1017.0 1016.8 0.0
26/07:00pm 22.7 21.4 14.8 61 4.7 E 15 22 8 12 1016.3 1016.1 0.0
26/06:30pm 23.7 22.0 14.7 57 5.4 E 17 24 9 13 1015.7 1015.4 0.0
26/06:00pm 24.1 22.4 14.8 56 5.6 E 17 26 9 14 1015.1 1014.9 0.0
26/05:30pm 24.4 22.8 15.1 56 5.6 ENE 17 24 9 13 1014.9 1014.7 0.0
26/05:00pm 23.9 21.6 14.6 56 5.5 ENE 20 33 11 18 1014.9 1014.7 0.0
26/04:30pm 26.5 24.2 14.6 48 7.2 NE 20 28 11 15 1014.7 1014.5 0.0
26/04:00pm 26.4 24.2 14.8 49 7.0 NE 20 32 11 17 1014.8 1014.6 0.0
26/03:30pm 26.3 23.5 14.4 48 7.1 NE 22 35 12 19 1015.1 1014.9 0.0
26/03:00pm 26.0 23.4 13.8 47 7.2 NE 20 30 11 16 1015.5 1015.2 0.0
26/02:30pm 25.3 22.8 13.5 48 6.9 NE 19 26 10 14 1016.1 1015.8 0.0
26/02:00pm 24.8 22.5 13.0 47 6.9 NE 17 26 9 14 1016.3 1016.1 0.0
26/01:30pm 23.9 22.1 13.2 51 6.2 N 15 20 8 11 1016.9 1016.7 0.0
26/01:00pm 23.3 21.1 13.2 53 5.8 N 17 26 9 14 1017.2 1017.0 0.0
26/12:30pm 24.8 22.5 13.0 47 6.9 NE 17 22 9 12 1017.4 1017.2 0.0
26/12:00pm 23.3 20.5 13.2 53 5.8 NNE 20 26 11 14 1018.2 1018.0 0.0
26/11:30am 23.0 20.4 13.2 54 5.7 N 19 24 10 13 1018.7 1018.5 0.0
26/11:00am 21.9 19.1 12.5 55 5.3 N 19 24 10 13 1019.0 1018.8 0.0
26/10:30am 21.8 19.8 12.6 56 5.2 N 15 19 8 10 1019.2 1019.0 0.0
26/10:00am 21.0 19.3 12.4 58 4.8 N 13 17 7 9 1019.4 1019.2 0.0
26/09:30am 21.0 18.9 12.4 58 4.9 NNE 15 20 8 11 1019.6 1019.4 0.0
26/09:00am 20.6 18.5 12.3 59 4.7 N 15 20 8 11 1019.8 1019.6 0.0
26/08:30am 20.1 18.6 13.1 64 4.0 N 13 17 7 9 1019.9 1019.7 0.0
26/08:00am 19.9 18.2 13.6 67 3.6 N 15 20 8 11 1019.8 1019.6 0.0
26/07:30am 19.3 19.1 13.7 70 3.2 N 7 11 4 6 1019.6 1019.4 0.0
26/07:00am 18.4 18.4 13.7 74 2.7 N 6 7 3 4 1019.6 1019.4 0.0
26/06:30am 18.0 19.2 13.9 77 2.3 CALM 0 0 0 0 1019.5 1019.3 0.0
26/06:00am 17.5 18.6 13.4 77 2.3 CALM 0 0 0 0 1019.4 1019.2 0.0
26/05:30am 17.5 18.5 13.2 76 2.4 CALM 0 0 0 0 1019.3 1019.1 0.0
26/05:00am 17.6 17.4 13.1 75 2.5 N 6 7 3 4 1019.1 1018.9 0.0
26/04:30am 17.7 17.4 12.8 73 2.7 NNE 6 9 3 5 1018.9 1018.7 0.0
26/04:00am 17.8 17.3 12.7 72 2.8 ENE 7 11 4 6 1019.1 1018.9 0.0
26/03:30am 18.1 17.6 12.5 70 3.1 E 7 11 4 6 1019.1 1018.9 0.0
26/03:00am 18.1 17.3 12.8 71 3.0 E 9 15 5 8 1019.3 1019.1 0.0
26/02:30am 18.1 17.3 12.8 71 3.0 E 9 13 5 7 1019.6 1019.4 0.0
26/02:00am 18.1 17.2 12.5 70 3.1 E 9 15 5 8 1019.8 1019.6 0.0
26/01:30am 18.3 17.4 12.7 70 3.1 E 9 15 5 8 1020.2 1020.0 0.0
26/01:00am 18.5 17.6 12.7 69 3.2 E 9 13 5 7 1020.5 1020.3 0.0
26/12:30am 18.6 18.1 12.8 69 3.3 E 7 9 4 5 1020.8 1020.6 0.0
26/12:00am 18.6 18.3 12.8 69 3.3 E 6 13 3 7 1020.8 1020.6 0.0
 
Date/Time
EDT
Temp
°C
App
Temp
°C
Dew
Point
Rel
Hum
%
Delta-T
°C
Wind Press
QNH
hPa
Press
MSL
hPa
Rain
since 9 am
mm
Dir
 
Spd
km/h
Gust
km/h
Spd
kts
Gust
kts
25/11:30pm 18.5 18.9 12.5 68 3.4 SE 2 7 1 4 1020.8 1020.6 0.0
25/11:00pm 18.6 18.3 12.6 68 3.4 ESE 6 9 3 5 1021.0 1020.8 0.0
25/10:30pm 18.6 18.1 12.6 68 3.4 ESE 7 13 4 7 1021.1 1020.9 0.0
25/10:00pm 18.7 17.8 12.5 67 3.5 E 9 17 5 9 1020.8 1020.6 0.0
25/09:30pm 18.7 16.9 12.2 66 3.6 E 13 17 7 9 1020.5 1020.3 0.0
25/09:00pm 18.7 17.7 12.2 66 3.6 ESE 9 15 5 8 1020.1 1019.9 0.0
25/08:30pm 18.7 17.3 12.2 66 3.6 E 11 17 6 9 1019.8 1019.6 0.0

Other Formats:

Comma delimited format used in spreadsheet applications
http://www.bom.gov.au/fwo/IDN60801/IDN60801.94755.axf

JavaScript Object Notation format (JSON) in row-major order
http://www.bom.gov.au/fwo/IDN60801/IDN60801.94755.json